Pagrindinis puslapis
METAR-TAF:

METAR-TAF

Oro uostai :

Džibučio

Džibutis, Džibutis

platuma: 11-33N, ilguma: 043-10E, Aukštis: 49 m

Dabartinis oras

Ataskaita buvo paskelbta 53 minutes, ne 08:00 UTC
Vėjas 8 kt iš Rytų
Temperatūra 30°C
Drėgmė 70%
Slėgis 1015 hPa
Matomumas 10 km arba daugiau
Mažai debesys ne aukštis 2000 ft

METAR: HDAM 060800Z 09008KT 9999 FEW020 30/24 Q1015

Laikas: 11:53 (08:53 UTC)

Prognozė

Ataskaita buvo paskelbta 3 valandos ir 53 minutes, ne 05:00 UTC
Prognozė galioja nuo 06 metu 06 UTC su 07 metu 06 UTC
Vėjas 10 kt iš Rytų
Išsisklaidę debesys ne aukštis 2300 ft
Tapsmas
nuo 06 metu 15 UTC su 06 metu 18 UTC
Vėjas 5 kt nuo kintamojo kryptimis
Mažai debesys ne aukštis 2000 ft
Tapsmas
nuo 07 metu 00 UTC su 07 metu 06 UTC
Vėjas kt iš Šiaurės
Išsisklaidę debesys ne aukštis 2000 ft

TAF: HDAM 060500Z 0606/0706 08010KT 9/9 SCT023 BECMG 0615/0618 VRB05KT FEW020 BECMG 0700/0706 00000KT SCT020

Orai ataskaitas ir orų prognozės (METAR, TAF).

turimą stotys yra geltonos ir raudonos taškus žemėlapyje.

Perkelti pele per norėdami pamatyti stoties vardą.

Tada spustelėkite, norėdami matyti oro stebėjimo ir prognozės.

Norėdami pakeisti žemėlapį: spustelėkite ant žalios mygtukų su juodo kryžiaus žemyn,; žalią mygtuką su brūkšneliu, jei norite nutolinti; arba žalių rodyklių gretimoms žemėlapius.


METAR-TAF: